createdAt,value
2022-07-29T00:02:25.329Z,4.68
2022-07-29T00:04:51.856Z,8.13
2022-07-29T00:07:18.452Z,4.55
2022-07-29T00:09:51.973Z,6.78
2022-07-29T00:12:21.471Z,9.13
2022-07-29T00:14:54.490Z,4.85
2022-07-29T00:17:20.971Z,8.38
2022-07-29T00:19:47.414Z,6.63
2022-07-29T00:22:14.200Z,7.95
2022-07-29T00:24:40.715Z,12.82
2022-07-29T00:27:07.169Z,8.63
2022-07-29T00:29:34.829Z,9.90
2022-07-29T00:32:05.712Z,9.65
2022-07-29T00:34:50.788Z,4.85
2022-07-29T00:37:17.396Z,6.63
2022-07-29T00:39:44.026Z,9.00
2022-07-29T00:42:10.850Z,5.53
2022-07-29T00:44:41.686Z,7.82
2022-07-29T00:47:09.362Z,9.70
2022-07-29T00:49:36.588Z,10.45
2022-07-29T00:52:04.788Z,8.07
2022-07-29T00:54:31.326Z,6.07
2022-07-29T00:57:01.411Z,5.20
2022-07-29T00:59:35.103Z,11.07
2022-07-29T01:02:03.598Z,12.23
2022-07-29T01:04:30.697Z,5.00
2022-07-29T01:06:57.213Z,11.18
2022-07-29T01:09:43.168Z,9.60
2022-07-29T01:12:11.368Z,6.20
2022-07-29T01:14:38.440Z,6.65
2022-07-29T01:17:11.957Z,4.68
2022-07-29T01:20:04.706Z,6.63
2022-07-29T01:22:59.750Z,6.43
2022-07-29T01:25:44.474Z,7.65
2022-07-29T01:28:32.614Z,7.03
2022-07-29T01:31:00.216Z,5.50
2022-07-29T01:33:46.326Z,8.20
2022-07-29T01:36:16.077Z,8.30
2022-07-29T01:38:44.159Z,4.25
2022-07-29T01:41:14.083Z,4.82
2022-07-29T01:43:51.673Z,7.43
2022-07-29T01:46:26.675Z,6.45
2022-07-29T01:48:57.464Z,7.03
2022-07-29T01:51:33.569Z,8.90
2022-07-29T01:54:23.840Z,5.57
2022-07-29T01:56:52.436Z,6.97
2022-07-29T01:59:19.789Z,5.90
2022-07-29T02:01:49.359Z,4.90
2022-07-29T02:04:28.865Z,6.13
2022-07-29T02:07:00.059Z,14.32
2022-07-29T02:09:27.263Z,6.63
2022-07-29T02:11:56.197Z,5.65
2022-07-29T02:14:24.259Z,9.15
2022-07-29T02:16:54.540Z,5.53
2022-07-29T02:19:23.302Z,6.70
2022-07-29T02:21:52.531Z,9.75
2022-07-29T02:24:19.601Z,9.57
2022-07-29T02:26:46.546Z,5.40
2022-07-29T02:29:13.531Z,8.07
2022-07-29T02:31:40.496Z,7.45
2022-07-29T02:34:08.448Z,6.88
2022-07-29T02:36:35.713Z,8.00
2022-07-29T02:39:03.710Z,7.50
2022-07-29T02:41:34.726Z,6.68
2022-07-29T02:46:39.159Z,7.45
2022-07-29T02:49:26.001Z,6.63
2022-07-29T02:51:55.908Z,4.75
2022-07-29T02:54:44.816Z,7.32
2022-07-29T02:57:23.998Z,4.75
2022-07-29T02:59:53.992Z,6.05
2022-07-29T03:02:21.403Z,7.55
2022-07-29T03:04:50.123Z,7.85
2022-07-29T03:07:19.519Z,8.90
2022-07-29T03:09:46.457Z,5.20
2022-07-29T03:12:13.304Z,5.13
2022-07-29T03:14:40.075Z,7.15
2022-07-29T03:17:06.825Z,5.40
2022-07-29T03:19:33.359Z,10.27
2022-07-29T03:22:00.131Z,7.70
2022-07-29T03:24:34.306Z,10.55
2022-07-29T03:27:01.630Z,5.47
2022-07-29T03:29:33.894Z,6.50
2022-07-29T03:32:09.394Z,7.43
2022-07-29T03:34:38.369Z,6.55
2022-07-29T03:37:06.753Z,11.18
2022-07-29T03:39:37.738Z,7.95
2022-07-29T03:44:31.819Z,4.88
2022-07-29T03:47:01.244Z,6.53
2022-07-29T03:49:27.888Z,8.23
2022-07-29T03:51:54.702Z,9.82
2022-07-29T03:54:21.660Z,7.45
2022-07-29T03:56:49.589Z,10.13
2022-07-29T03:59:17.548Z,5.55
2022-07-29T04:01:44.525Z,4.93
2022-07-29T04:04:11.375Z,6.05
2022-07-29T04:06:42.491Z,7.22
2022-07-29T04:09:09.897Z,7.57
2022-07-29T04:12:03.774Z,5.18
2022-07-29T04:14:24.850Z,9.90
2022-07-29T04:16:51.271Z,5.88
2022-07-29T04:19:17.716Z,6.40
2022-07-29T04:21:46.057Z,6.25
2022-07-29T04:24:12.758Z,8.55
2022-07-29T04:26:39.439Z,6.88
2022-07-29T04:29:06.074Z,7.32
2022-07-29T04:31:32.570Z,9.70
2022-07-29T04:33:59.089Z,15.70
2022-07-29T04:36:29.470Z,15.25
2022-07-29T04:38:56.745Z,11.95
2022-07-29T04:41:23.307Z,11.90
2022-07-29T04:43:49.998Z,9.25
2022-07-29T04:46:16.598Z,10.80
2022-07-29T04:48:43.150Z,13.88
2022-07-29T04:51:09.684Z,11.25
2022-07-29T04:53:36.116Z,10.98
2022-07-29T04:56:03.206Z,10.80
2022-07-29T04:58:29.744Z,10.35
2022-07-29T05:00:56.323Z,12.15
2022-07-29T05:03:22.839Z,11.35
2022-07-29T05:05:49.514Z,15.40
2022-07-29T05:08:16.083Z,14.68
2022-07-29T05:10:42.620Z,13.23
2022-07-29T05:13:09.133Z,11.27
2022-07-29T05:15:36.166Z,10.55
2022-07-29T05:18:02.763Z,12.55
2022-07-29T05:20:30.480Z,14.38
2022-07-29T05:23:00.742Z,10.55
2022-07-29T05:25:43.454Z,9.73
2022-07-29T05:28:11.447Z,18.50
2022-07-29T05:30:37.990Z,10.82
2022-07-29T05:33:04.740Z,12.60
2022-07-29T05:35:31.299Z,10.73
2022-07-29T05:37:57.774Z,11.85
2022-07-29T05:40:24.244Z,11.10
2022-07-29T05:42:50.796Z,9.43
2022-07-29T05:45:17.331Z,12.25
2022-07-29T05:47:43.883Z,10.25
2022-07-29T05:50:10.454Z,15.55
2022-07-29T05:52:38.880Z,12.77
2022-07-29T05:55:06.586Z,12.80
2022-07-29T05:57:33.386Z,13.10
2022-07-29T06:00:00.090Z,11.57
2022-07-29T06:02:26.673Z,10.07
2022-07-29T06:04:53.309Z,13.57
2022-07-29T06:07:19.921Z,12.95
2022-07-29T06:09:46.410Z,15.25
2022-07-29T06:12:13.039Z,18.13
2022-07-29T06:14:39.626Z,12.70
2022-07-29T06:17:06.625Z,17.13
2022-07-29T06:19:35.539Z,18.73
2022-07-29T06:22:02.017Z,15.38
2022-07-29T06:24:28.579Z,16.77
2022-07-29T06:26:55.119Z,18.05
2022-07-29T06:29:21.563Z,17.15
2022-07-29T06:31:49.498Z,16.85
2022-07-29T06:34:16.672Z,13.93
2022-07-29T06:36:44.499Z,20.38
2022-07-29T06:39:12.436Z,13.20
2022-07-29T06:41:39.046Z,13.38
2022-07-29T06:44:05.659Z,17.45
2022-07-29T06:46:33.160Z,15.98
2022-07-29T06:49:02.363Z,19.45
2022-07-29T06:51:28.975Z,17.05
2022-07-29T06:54:00.494Z,11.52
2022-07-29T06:56:39.213Z,13.73
2022-07-29T06:59:10.067Z,13.10
2022-07-29T07:01:41.471Z,13.02
2022-07-29T07:04:09.782Z,12.90
2022-07-29T07:06:37.087Z,16.27
2022-07-29T07:09:03.824Z,15.90
2022-07-29T07:11:30.318Z,15.75
2022-07-29T07:14:02.252Z,14.63
2022-07-29T07:16:30.161Z,10.68
2022-07-29T07:18:56.648Z,13.75
2022-07-29T07:21:23.324Z,14.73
2022-07-29T07:23:49.765Z,11.90
2022-07-29T07:26:16.487Z,14.52
2022-07-29T07:28:42.962Z,14.90
2022-07-29T07:31:10.546Z,12.68
2022-07-29T07:33:37.133Z,17.35
2022-07-29T07:36:03.891Z,13.13
2022-07-29T07:38:30.381Z,13.52
2022-07-29T07:40:56.888Z,19.63
2022-07-29T07:43:23.542Z,16.55
2022-07-29T07:45:50.017Z,15.60
2022-07-29T07:48:16.554Z,17.17
2022-07-29T07:50:44.553Z,13.88
2022-07-29T07:53:11.655Z,20.27
2022-07-29T07:56:09.530Z,15.43
2022-07-29T07:58:31.347Z,14.52
2022-07-29T08:01:00.096Z,15.07
2022-07-29T08:03:26.705Z,15.45
2022-07-29T08:05:55.117Z,13.90
2022-07-29T08:08:22.030Z,14.48
2022-07-29T08:10:54.594Z,14.68
2022-07-29T08:13:22.491Z,15.18
2022-07-29T08:15:58.644Z,17.10
2022-07-29T08:18:26.241Z,17.05
2022-07-29T08:20:52.781Z,15.85
2022-07-29T08:23:22.242Z,14.25
2022-07-29T08:25:50.199Z,14.32
2022-07-29T08:28:17.844Z,18.77
2022-07-29T08:30:44.282Z,17.63
2022-07-29T08:33:10.894Z,11.88
2022-07-29T08:35:37.427Z,12.18
2022-07-29T08:38:04.355Z,15.57
2022-07-29T08:40:32.404Z,12.35
2022-07-29T08:43:00.527Z,14.20
2022-07-29T08:45:27.875Z,14.73
2022-07-29T08:47:54.487Z,15.10
2022-07-29T08:50:21.079Z,15.05
2022-07-29T08:52:48.162Z,20.90
2022-07-29T08:55:16.343Z,17.73
2022-07-29T08:57:51.972Z,16.20
2022-07-29T09:00:22.344Z,16.27
2022-07-29T09:02:52.533Z,18.17
2022-07-29T09:05:19.497Z,17.05
2022-07-29T09:07:48.858Z,15.75
2022-07-29T09:10:15.708Z,20.23
2022-07-29T09:12:42.555Z,17.73
2022-07-29T09:15:09.735Z,17.40
2022-07-29T09:17:47.621Z,20.00
2022-07-29T09:20:16.290Z,18.52
2022-07-29T09:22:42.885Z,15.18
2022-07-29T09:25:09.930Z,21.27
2022-07-29T09:27:36.945Z,20.02
2022-07-29T09:30:08.150Z,17.95
2022-07-29T09:32:55.117Z,18.80
2022-07-29T09:35:25.835Z,14.10
2022-07-29T09:37:52.445Z,18.38
2022-07-29T09:40:29.057Z,15.20
2022-07-29T09:42:59.244Z,18.17
2022-07-29T09:45:33.737Z,15.35
2022-07-29T09:48:04.116Z,13.52
2022-07-29T09:50:43.490Z,15.48
2022-07-29T09:53:10.965Z,16.45
2022-07-29T09:56:04.316Z,14.82
2022-07-29T09:58:30.985Z,20.02
2022-07-29T10:00:57.865Z,14.75
2022-07-29T10:03:25.201Z,16.05
2022-07-29T10:06:14.382Z,15.45
2022-07-29T10:08:42.964Z,13.00
2022-07-29T10:11:15.381Z,13.48
2022-07-29T10:13:43.151Z,12.77
2022-07-29T10:16:09.908Z,17.00
2022-07-29T10:18:36.703Z,12.05
2022-07-29T10:21:03.301Z,13.57
2022-07-29T10:23:30.654Z,17.15
2022-07-29T10:26:13.921Z,11.40
2022-07-29T10:28:40.361Z,16.05
2022-07-29T10:31:09.366Z,12.82
2022-07-29T10:33:57.124Z,13.68
2022-07-29T10:36:34.568Z,14.07
2022-07-29T10:39:22.322Z,16.25
2022-07-29T10:42:19.878Z,12.00
2022-07-29T10:44:47.091Z,12.02
2022-07-29T10:47:28.069Z,15.63
2022-07-29T10:50:01.074Z,15.60
2022-07-29T10:52:50.027Z,14.75
2022-07-29T10:55:34.177Z,12.18
2022-07-29T10:58:19.863Z,10.25
2022-07-29T11:00:51.357Z,11.95
2022-07-29T11:03:50.468Z,11.32
2022-07-29T11:06:26.724Z,14.00
2022-07-29T11:09:34.943Z,12.77
2022-07-29T11:12:04.358Z,13.43
2022-07-29T11:14:58.014Z,12.60
2022-07-29T11:17:24.667Z,17.60
2022-07-29T11:19:51.262Z,12.35
2022-07-29T11:22:35.281Z,13.50
2022-07-29T11:25:18.777Z,11.88
2022-07-29T11:27:45.979Z,9.68
2022-07-29T11:30:13.065Z,14.57
2022-07-29T11:32:48.632Z,11.40
2022-07-29T11:35:36.900Z,8.43
2022-07-29T11:38:22.596Z,14.60
2022-07-29T11:41:20.961Z,8.93
2022-07-29T11:43:48.444Z,8.70
2022-07-29T11:46:24.952Z,8.83
2022-07-29T11:48:52.163Z,10.82
2022-07-29T11:51:18.942Z,14.52
2022-07-29T11:54:04.268Z,11.55
2022-07-29T11:56:32.805Z,11.10
2022-07-29T11:59:05.693Z,12.05
2022-07-29T12:01:35.278Z,13.90
2022-07-29T12:04:08.639Z,7.68
2022-07-29T12:06:35.604Z,12.45
2022-07-29T12:09:08.051Z,8.98
2022-07-29T12:11:40.911Z,12.30
2022-07-29T12:14:07.338Z,11.95
2022-07-29T12:16:38.249Z,9.05
2022-07-29T12:19:05.323Z,13.77
2022-07-29T12:21:53.779Z,12.93
2022-07-29T12:24:26.991Z,9.43
2022-07-29T12:26:58.827Z,11.15
2022-07-29T12:29:34.634Z,11.75
2022-07-29T12:32:03.967Z,11.75
2022-07-29T12:34:31.068Z,11.18
2022-07-29T12:36:57.632Z,14.15
2022-07-29T12:39:27.265Z,8.65
2022-07-29T12:41:54.332Z,10.20
2022-07-29T12:44:52.190Z,10.45
2022-07-29T12:47:20.042Z,10.32
2022-07-29T12:49:47.737Z,9.25
2022-07-29T12:52:29.627Z,12.88
2022-07-29T12:54:56.320Z,11.80
2022-07-29T12:57:23.426Z,8.05
2022-07-29T13:00:24.006Z,12.13
2022-07-29T13:02:58.526Z,12.85
2022-07-29T13:05:40.551Z,12.93
2022-07-29T13:08:20.384Z,10.48
2022-07-29T13:10:49.157Z,9.15
2022-07-29T13:13:16.419Z,11.02
2022-07-29T13:15:44.931Z,11.13
2022-07-29T13:18:28.504Z,10.55
2022-07-29T13:20:58.932Z,10.00
2022-07-29T13:23:25.848Z,13.40
2022-07-29T13:25:52.810Z,9.88
2022-07-29T13:28:22.474Z,14.50
2022-07-29T13:30:49.259Z,9.40
2022-07-29T13:33:16.091Z,11.52
2022-07-29T13:35:42.597Z,11.27
2022-07-29T13:38:09.749Z,10.80
2022-07-29T13:40:36.534Z,9.98
2022-07-29T13:43:03.241Z,9.45
2022-07-29T13:45:31.034Z,11.20
2022-07-29T13:47:57.653Z,9.80
2022-07-29T13:50:24.150Z,20.75
2022-07-29T13:52:51.691Z,8.43
2022-07-29T13:55:18.446Z,10.88
2022-07-29T13:57:45.213Z,11.88
2022-07-29T14:00:12.948Z,12.85
2022-07-29T14:02:40.588Z,11.90
2022-07-29T14:05:08.830Z,12.00
2022-07-29T14:07:35.784Z,9.23
2022-07-29T14:10:02.471Z,9.88
2022-07-29T14:12:29.487Z,12.50
2022-07-29T14:14:55.980Z,10.93
2022-07-29T14:17:23.244Z,9.95
2022-07-29T14:19:52.219Z,11.93
2022-07-29T14:22:20.013Z,10.45
2022-07-29T14:24:49.824Z,9.13
2022-07-29T14:27:16.355Z,10.85
2022-07-29T14:29:42.955Z,13.65
2022-07-29T14:32:11.110Z,11.25
2022-07-29T14:34:38.739Z,19.90
2022-07-29T14:37:09.272Z,10.70
2022-07-29T14:39:42.772Z,12.10
2022-07-29T14:42:12.324Z,9.70
2022-07-29T14:44:40.912Z,10.65
2022-07-29T14:47:08.459Z,12.90
2022-07-29T14:49:35.897Z,12.73
2022-07-29T14:52:02.839Z,10.90
2022-07-29T14:54:29.738Z,13.20
2022-07-29T14:56:58.911Z,11.07
2022-07-29T14:59:26.399Z,10.05
2022-07-29T15:01:56.653Z,16.88
2022-07-29T15:06:51.387Z,14.27
2022-07-29T15:09:17.989Z,10.25
2022-07-29T15:11:44.850Z,10.93
2022-07-29T15:14:11.818Z,12.85
2022-07-29T15:16:43.958Z,10.65
2022-07-29T15:19:14.056Z,10.95
2022-07-29T15:21:41.662Z,10.27
2022-07-29T15:24:16.207Z,9.75
2022-07-29T15:26:43.874Z,10.90
2022-07-29T15:29:10.348Z,13.25
2022-07-29T15:31:36.906Z,11.88
2022-07-29T15:34:06.315Z,10.80
2022-07-29T15:36:51.634Z,10.68
2022-07-29T15:39:19.926Z,8.98
2022-07-29T15:41:46.589Z,11.20
2022-07-29T15:44:13.039Z,9.10
2022-07-29T15:46:58.159Z,10.55
2022-07-29T15:49:31.366Z,10.23
2022-07-29T15:54:42.049Z,9.68
2022-07-29T15:57:09.968Z,10.88
2022-07-29T15:59:36.526Z,11.32
2022-07-29T16:02:03.528Z,11.13
2022-07-29T16:04:30.154Z,12.38
2022-07-29T16:06:57.379Z,9.30
2022-07-29T16:09:24.249Z,10.88
2022-07-29T16:11:54.019Z,8.40
2022-07-29T16:14:20.990Z,13.52
2022-07-29T16:16:47.645Z,10.73
2022-07-29T16:19:15.455Z,9.10
2022-07-29T16:21:42.383Z,9.43
2022-07-29T16:24:09.154Z,10.98
2022-07-29T16:26:35.752Z,9.52
2022-07-29T16:29:02.277Z,8.07
2022-07-29T16:31:29.188Z,9.90
2022-07-29T16:33:56.487Z,13.07
2022-07-29T16:36:23.489Z,9.35
2022-07-29T16:38:50.542Z,7.82
2022-07-29T16:41:17.140Z,10.25
2022-07-29T16:43:43.951Z,9.60
2022-07-29T16:46:12.506Z,8.95
2022-07-29T16:48:45.389Z,13.25
2022-07-29T16:51:11.933Z,11.45
2022-07-29T16:53:41.309Z,9.63
2022-07-29T16:56:11.813Z,11.50
2022-07-29T16:58:43.622Z,10.85
2022-07-29T17:01:11.749Z,9.45
2022-07-29T17:04:01.043Z,11.65
2022-07-29T17:06:29.533Z,10.30
2022-07-29T17:08:56.490Z,9.70
2022-07-29T17:11:23.100Z,10.65
2022-07-29T17:14:10.642Z,11.00
2022-07-29T17:16:37.337Z,10.35
2022-07-29T17:19:04.131Z,10.95
2022-07-29T17:21:30.595Z,9.65
2022-07-29T17:23:59.193Z,12.05
2022-07-29T17:26:27.354Z,8.35
2022-07-29T17:28:54.779Z,11.63
2022-07-29T17:31:21.339Z,8.63
2022-07-29T17:33:47.798Z,10.55
2022-07-29T17:36:29.320Z,9.05
2022-07-29T17:38:58.232Z,11.93
2022-07-29T17:41:25.368Z,11.85
2022-07-29T17:43:52.530Z,9.77
2022-07-29T17:46:19.777Z,12.70
2022-07-29T17:48:46.547Z,10.80
2022-07-29T17:51:13.292Z,11.15
2022-07-29T17:53:40.074Z,9.95
2022-07-29T17:56:09.420Z,8.90
2022-07-29T17:58:36.300Z,15.95
2022-07-29T18:01:02.847Z,10.35
2022-07-29T18:03:29.642Z,7.68
2022-07-29T18:05:56.284Z,9.40
2022-07-29T18:08:25.353Z,9.30
2022-07-29T18:10:51.888Z,8.13
2022-07-29T18:13:19.226Z,12.73
2022-07-29T18:15:46.694Z,8.73
2022-07-29T18:18:16.742Z,9.45
2022-07-29T18:20:43.522Z,10.10
2022-07-29T18:23:10.274Z,10.07
2022-07-29T18:25:37.506Z,6.95
2022-07-29T18:28:04.968Z,10.25
2022-07-29T18:30:33.860Z,9.57
2022-07-29T18:33:20.300Z,8.30
2022-07-29T18:36:10.835Z,8.43
2022-07-29T18:38:41.677Z,11.02
2022-07-29T18:41:11.249Z,10.32
2022-07-29T18:43:37.773Z,10.05
2022-07-29T18:46:05.767Z,8.30
2022-07-29T18:48:34.024Z,6.97
2022-07-29T18:51:09.445Z,13.23
2022-07-29T18:53:51.409Z,9.70
2022-07-29T18:56:43.830Z,8.07
2022-07-29T18:59:29.643Z,8.98
2022-07-29T19:01:57.721Z,8.07
2022-07-29T19:04:33.675Z,9.18
2022-07-29T19:07:04.119Z,9.85
2022-07-29T19:09:49.430Z,11.45
2022-07-29T19:12:18.712Z,8.25
2022-07-29T19:14:50.650Z,11.95
2022-07-29T19:20:03.361Z,17.38
2022-07-29T19:22:30.947Z,13.65
2022-07-29T19:24:57.853Z,12.82
2022-07-29T19:27:32.664Z,13.25
2022-07-29T19:30:00.380Z,12.30
2022-07-29T19:32:30.320Z,11.75
2022-07-29T19:35:24.377Z,18.87
2022-07-29T19:37:53.467Z,10.55
2022-07-29T19:40:23.069Z,10.02
2022-07-29T19:42:53.717Z,14.15
2022-07-29T19:45:22.408Z,10.45
2022-07-29T19:47:51.513Z,13.65
2022-07-29T19:50:18.642Z,13.00
2022-07-29T19:52:47.041Z,10.80
2022-07-29T19:55:14.534Z,10.80
2022-07-29T19:57:50.515Z,10.32
2022-07-29T20:00:21.122Z,14.65
2022-07-29T20:02:48.433Z,9.60
2022-07-29T20:05:16.048Z,13.38
2022-07-29T20:07:47.004Z,13.80
2022-07-29T20:12:42.700Z,12.68
2022-07-29T20:15:10.615Z,10.98
2022-07-29T20:17:46.031Z,12.10
2022-07-29T20:20:14.582Z,12.43
2022-07-29T20:22:41.164Z,12.90
2022-07-29T20:25:10.101Z,13.80
2022-07-29T20:27:40.261Z,13.23
2022-07-29T20:30:07.516Z,16.40
2022-07-29T20:32:34.551Z,15.02
2022-07-29T20:35:01.038Z,11.77
2022-07-29T20:37:27.538Z,12.90
2022-07-29T20:39:56.195Z,14.07
2022-07-29T20:42:22.704Z,13.27
2022-07-29T20:44:51.177Z,13.52
2022-07-29T20:47:17.905Z,11.60
2022-07-29T20:49:44.435Z,13.90
2022-07-29T20:52:10.917Z,14.02
2022-07-29T20:54:37.396Z,14.27
2022-07-29T20:57:04.088Z,17.52
2022-07-29T20:59:30.552Z,12.00
2022-07-29T21:01:57.104Z,14.07
2022-07-29T21:04:30.494Z,12.82
2022-07-29T21:06:58.305Z,15.98
2022-07-29T21:09:24.937Z,16.98
2022-07-29T21:11:51.463Z,13.57
2022-07-29T21:14:36.980Z,15.10
2022-07-29T21:17:06.175Z,13.90
2022-07-29T21:19:33.266Z,12.75
2022-07-29T21:21:59.833Z,14.77
2022-07-29T21:24:26.390Z,12.88
2022-07-29T21:27:18.366Z,12.48
2022-07-29T21:29:42.306Z,14.20
2022-07-29T21:32:08.871Z,13.93
2022-07-29T21:34:35.446Z,16.10
2022-07-29T21:37:02.164Z,14.43
2022-07-29T21:39:32.004Z,13.30
2022-07-29T21:41:58.509Z,15.52
2022-07-29T21:44:25.171Z,12.52
2022-07-29T21:46:51.637Z,12.75
2022-07-29T21:49:18.556Z,11.80
2022-07-29T21:51:47.912Z,14.02
2022-07-29T21:54:14.446Z,12.15
2022-07-29T21:56:41.006Z,13.27
2022-07-29T21:59:09.841Z,15.13
2022-07-29T22:04:06.571Z,12.95
2022-07-29T22:06:34.525Z,19.17
2022-07-29T22:09:01.127Z,16.38
2022-07-29T22:11:27.736Z,18.25
2022-07-29T22:13:54.271Z,19.73
2022-07-29T22:16:20.869Z,16.05
2022-07-29T22:18:48.326Z,20.20
2022-07-29T22:21:18.138Z,14.88
2022-07-29T22:23:44.729Z,15.32
2022-07-29T22:26:11.250Z,13.18
2022-07-29T22:28:37.687Z,15.73
2022-07-29T22:31:04.934Z,12.75
2022-07-29T22:33:31.409Z,19.35
2022-07-29T22:35:57.827Z,16.27
2022-07-29T22:38:27.371Z,15.40
2022-07-29T22:40:54.070Z,16.23
2022-07-29T22:43:27.096Z,21.20
2022-07-29T22:45:53.622Z,16.77
2022-07-29T22:48:20.162Z,15.30
2022-07-29T22:50:46.681Z,15.50
2022-07-29T22:53:13.194Z,15.43
2022-07-29T22:55:39.755Z,19.52
2022-07-29T22:58:08.575Z,16.45
2022-07-29T23:00:36.461Z,19.55
2022-07-29T23:03:03.107Z,13.02
2022-07-29T23:05:29.759Z,24.88
2022-07-29T23:07:56.360Z,14.75
2022-07-29T23:10:22.850Z,17.90
2022-07-29T23:12:49.378Z,16.23
2022-07-29T23:15:18.299Z,17.15
2022-07-29T23:17:44.812Z,13.05
2022-07-29T23:20:11.466Z,17.48
2022-07-29T23:22:43.383Z,12.73
2022-07-29T23:25:10.155Z,18.77
2022-07-29T23:27:36.658Z,13.77
2022-07-29T23:30:04.884Z,15.40
2022-07-29T23:32:31.425Z,14.38
2022-07-29T23:35:00.200Z,15.95
2022-07-29T23:37:27.025Z,13.75
2022-07-29T23:39:53.748Z,15.63
2022-07-29T23:42:20.202Z,14.32
2022-07-29T23:44:46.647Z,14.40
2022-07-29T23:47:13.663Z,15.85
2022-07-29T23:49:40.274Z,12.82
2022-07-29T23:52:06.950Z,14.75
2022-07-29T23:54:33.457Z,16.85
2022-07-29T23:57:00.158Z,13.93
2022-07-29T23:59:26.904Z,15.40
